Time;durP1;ratioP1;P1;durP2;ratioP2;P2;SDS_P1;SDS_P2;PMS_P1;PMS_P2;Temp;Humidity;BMP_temperature;BMP_pressure;BME280_temperature;BME280_humidity;BME280_pressure;Samples;Min_cycle;Max_cycle;Signal;HPM_P1;HPM_P2
2021/05/12 00:01:27;;;;;;;16.17;5.83;;;;;;;15.62;37.00;98330.35;125521;1104;103025;-72
2021/05/12 00:03:55;;;;;;;14.60;4.13;;;;;;;15.60;36.84;98329.67;126670;1100;100777;-72
2021/05/12 00:06:24;;;;;;;13.00;4.67;;;;;;;15.55;36.90;98327.46;125586;1104;103096;-71
2021/05/12 00:08:52;;;;;;;11.45;4.50;;;;;;;15.51;36.92;98333.32;125365;1105;103111;-72
2021/05/12 00:11:20;;;;;;;13.37;4.70;;;;;;;15.45;37.02;98329.45;125362;1100;103208;-72
2021/05/12 00:13:49;;;;;;;11.53;3.90;;;;;;;15.42;37.19;98322.56;125577;1104;103020;-74
2021/05/12 00:16:22;;;;;;;15.53;4.10;;;;;;;15.38;37.25;98334.59;125422;1105;103091;-74
2021/05/12 00:18:50;;;;;;;17.33;4.78;;;;;;;15.35;37.46;98318.02;125544;1104;102991;-71
2021/05/12 00:22:31;;;;;;;15.77;4.57;;;;;;;15.28;37.43;98324.02;125485;1104;103219;-72
2021/05/12 00:24:16;;;;;;;22.65;5.10;;;;;;;15.22;37.25;98318.47;125360;1100;103088;-72
2021/05/12 00:26:44;;;;;;;13.63;4.87;;;;;;;15.16;37.27;98318.10;125447;1104;103022;-72
2021/05/12 00:29:15;;;;;;;13.27;4.33;;;;;;;15.11;37.48;98314.20;125433;1104;103442;-71
2021/05/12 00:31:44;;;;;;;12.47;4.50;;;;;;;15.06;37.56;98314.69;125369;1104;103079;-71
2021/05/12 00:34:13;;;;;;;14.53;5.20;;;;;;;15.03;37.60;98306.97;125461;1100;103218;-72
2021/05/12 00:36:41;;;;;;;11.83;5.00;;;;;;;14.98;37.78;98310.14;125489;1104;103071;-72
2021/05/12 00:39:13;;;;;;;12.60;4.57;;;;;;;14.94;37.47;98313.27;125566;1104;103167;-73
2021/05/12 00:41:46;;;;;;;11.83;5.10;;;;;;;14.87;37.75;98305.05;125515;1104;103017;-73
2021/05/12 00:44:22;;;;;;;17.70;4.73;;;;;;;14.82;37.67;98315.38;125639;1104;103086;-72
2021/05/12 00:46:54;;;;;;;16.30;5.00;;;;;;;14.73;37.82;98304.61;125619;1104;103094;-73
2021/05/12 00:49:23;;;;;;;;;;;;;;;14.71;38.05;98305.78;125673;1104;102991;-72
2021/05/12 00:51:52;;;;;;;14.57;5.10;;;;;;;14.67;38.08;98304.38;125564;1104;103271;-74
2021/05/12 00:54:20;;;;;;;15.77;5.30;;;;;;;14.64;37.99;98305.55;125566;1104;103020;-72
2021/05/12 00:56:52;;;;;;;15.80;5.27;;;;;;;14.62;37.87;98302.19;125581;1100;102998;-72
2021/05/12 00:59:30;;;;;;;16.43;5.50;;;;;;;14.61;38.31;98303.18;125531;1104;102993;-72
2021/05/12 01:02:01;;;;;;;15.00;5.57;;;;;;;14.55;38.14;98301.13;125554;1104;103062;-74
2021/05/12 01:04:29;;;;;;;16.80;5.43;;;;;;;14.53;38.05;98303.94;125409;1104;103112;-71
2021/05/12 01:06:57;;;;;;;14.97;5.87;;;;;;;14.50;38.32;98301.57;125547;1104;103019;-69
2021/05/12 01:09:30;;;;;;;20.13;6.10;;;;;;;14.46;38.10;98296.70;125591;1104;103457;-70
2021/05/12 01:12:03;;;;;;;18.13;5.97;;;;;;;14.44;38.34;98302.22;125559;1104;103024;-71
2021/05/12 01:14:35;;;;;;;17.20;5.45;;;;;;;14.39;38.36;98291.97;125362;1105;103098;-71
2021/05/12 01:17:04;;;;;;;17.23;5.38;;;;;;;14.38;38.40;98292.14;125557;1104;103003;-71
2021/05/12 01:19:36;;;;;;;15.70;6.17;;;;;;;14.34;38.28;98285.41;125545;1104;102997;-71
2021/05/12 01:22:05;;;;;;;19.37;6.43;;;;;;;14.31;38.34;98293.75;125559;1104;103084;-72
2021/05/12 01:24:33;;;;;;;16.50;5.43;;;;;;;14.26;38.35;98288.88;125555;1104;103211;-74
2021/05/12 01:27:05;;;;;;;15.90;5.00;;;;;;;14.23;38.46;98283.83;125513;1104;103030;-69
2021/05/12 01:29:34;;;;;;;14.23;5.27;;;;;;;14.20;38.81;98281.45;125502;1104;103129;-71
2021/05/12 01:32:09;;;;;;;13.37;5.50;;;;;;;14.13;38.90;98284.74;125598;1104;103090;-73
2021/05/12 01:34:37;;;;;;;17.40;5.77;;;;;;;14.09;38.77;98283.37;125569;1100;103019;-74
2021/05/12 01:37:06;;;;;;;15.97;5.60;;;;;;;14.06;38.78;98280.17;125623;1099;103198;-70
2021/05/12 01:39:34;;;;;;;15.37;5.33;;;;;;;14.03;38.81;98277.80;125515;1100;103070;-71
2021/05/12 01:42:06;;;;;;;14.77;5.50;;;;;;;13.98;38.84;98278.24;125617;1100;103161;-72
2021/05/12 01:44:35;;;;;;;16.73;5.77;;;;;;;13.92;38.95;98269.02;125532;1104;103093;-72
2021/05/12 01:47:03;;;;;;;15.83;5.77;;;;;;;13.87;38.98;98268.63;125615;1100;102998;-71
2021/05/12 01:49:32;;;;;;;15.45;5.80;;;;;;;13.82;38.96;98262.89;125590;1105;102992;-72
2021/05/12 01:52:02;;;;;;;15.40;5.70;;;;;;;13.77;39.05;98260.69;125351;1105;103119;-71
2021/05/12 01:54:32;;;;;;;15.90;5.73;;;;;;;13.73;39.21;98263.80;125542;1104;103098;-71
2021/05/12 01:57:01;;;;;;;16.90;6.03;;;;;;;13.68;39.21;98267.77;125573;1104;103025;-71
2021/05/12 01:59:29;;;;;;;22.90;5.93;;;;;;;13.63;39.29;98261.20;125681;1104;103025;-71
2021/05/12 02:01:57;;;;;;;18.67;5.60;;;;;;;13.56;39.22;98255.63;125737;1100;103026;-70
2021/05/12 02:04:26;;;;;;;17.23;5.30;;;;;;;13.51;39.39;98253.39;125640;1104;103469;-73
2021/05/12 02:06:54;;;;;;;18.87;5.73;;;;;;;13.47;39.52;98248.52;125558;1104;103051;-72
2021/05/12 02:09:26;;;;;;;15.07;5.03;;;;;;;13.42;39.21;98262.33;125554;1099;103029;-72
2021/05/12 02:11:55;;;;;;;16.60;5.83;;;;;;;13.36;39.45;98255.70;125436;1099;103082;-73
2021/05/12 02:14:23;;;;;;;16.13;5.80;;;;;;;13.30;39.55;98247.46;125403;1100;103205;-72
2021/05/12 02:16:52;;;;;;;12.57;5.40;;;;;;;13.26;39.64;98252.24;125562;1104;103007;-72
2021/05/12 02:19:23;;;;;;;16.90;5.97;;;;;;;13.22;39.64;98251.71;125547;1104;102997;-73
2021/05/12 02:21:55;;;;;;;17.47;6.00;;;;;;;13.19;39.83;98254.67;125464;1105;103080;-73
2021/05/12 02:24:23;;;;;;;17.23;5.90;;;;;;;13.17;40.02;98258.50;125535;1100;103114;-72
2021/05/12 02:26:51;;;;;;;18.23;5.30;;;;;;;13.12;39.91;98256.25;125595;1104;102995;-72
2021/05/12 02:29:25;;;;;;;;;;;;;;;13.08;40.32;98255.72;125580;1104;103155;-71
2021/05/12 02:31:53;;;;;;;13.53;5.07;;;;;;;13.02;40.00;98253.64;125598;1104;103090;-72
2021/05/12 02:34:26;;;;;;;13.50;5.07;;;;;;;12.99;39.99;98259.27;125534;1104;103045;-71
2021/05/12 02:36:54;;;;;;;15.85;4.95;;;;;;;12.95;40.07;98245.39;125550;1100;103026;-71
2021/05/12 02:39:33;;;;;;;16.37;6.10;;;;;;;12.90;40.07;98244.13;125444;1105;103137;-72
2021/05/12 02:42:01;;;;;;;13.55;5.38;;;;;;;12.86;40.36;98248.07;125516;1104;103021;-72
2021/05/12 02:44:29;;;;;;;16.53;5.17;;;;;;;12.83;40.48;98251.06;125559;1105;103473;-72
2021/05/12 02:46:57;;;;;;;16.03;5.77;;;;;;;12.79;40.27;98245.16;125536;1100;103032;-73
2021/05/12 02:49:26;;;;;;;15.13;5.60;;;;;;;12.77;40.54;98255.14;125554;1104;103068;-73
2021/05/12 02:51:54;;;;;;;11.10;4.75;;;;;;;12.75;40.38;98247.29;125559;1104;103027;-72
2021/05/12 02:54:26;;;;;;;14.40;5.37;;;;;;;12.72;40.39;98250.25;125530;1104;103024;-72
2021/05/12 02:56:59;;;;;;;16.07;5.40;;;;;;;12.70;40.37;98246.03;125542;1104;103000;-84
2021/05/12 02:59:31;;;;;;;12.50;4.30;;;;;;;12.66;40.65;98245.48;125562;1104;103023;-76
2021/05/12 03:01:59;;;;;;;13.13;5.10;;;;;;;12.66;40.57;98256.98;125654;1104;102995;-74
2021/05/12 03:04:28;;;;;;;17.97;5.60;;;;;;;12.64;40.55;98247.45;125639;1100;103003;-74
2021/05/12 03:07:00;;;;;;;17.25;5.50;;;;;;;12.63;40.62;98243.11;125452;1104;103065;-73
2021/05/12 03:09:33;;;;;;;21.17;5.07;;;;;;;12.58;40.86;98246.22;125605;1100;103090;-73
2021/05/12 03:12:01;;;;;;;21.23;6.60;;;;;;;12.56;40.83;98242.86;125558;1104;102999;-74
2021/05/12 03:14:33;;;;;;;16.95;5.05;;;;;;;12.55;41.02;98241.17;125613;1104;102988;-74
2021/05/12 03:17:06;;;;;;;17.90;5.13;;;;;;;12.53;40.90;98245.81;125589;1104;103026;-74
2021/05/12 03:19:35;;;;;;;14.53;5.93;;;;;;;12.54;41.13;98247.50;125599;1100;103022;-74
2021/05/12 03:22:07;;;;;;;15.00;5.20;;;;;;;12.54;41.02;98243.97;125582;1100;102997;-74
2021/05/12 03:24:35;;;;;;;16.00;5.40;;;;;;;12.54;41.05;98238.63;125625;1104;103586;-74
2021/05/12 03:27:08;;;;;;;15.87;5.43;;;;;;;12.53;41.17;98239.63;125504;1104;103001;-72
2021/05/12 03:29:36;;;;;;;13.48;4.73;;;;;;;12.53;40.61;98239.63;125529;1104;102995;-73
2021/05/12 03:32:09;;;;;;;13.85;4.90;;;;;;;12.51;41.26;98237.11;125492;1105;103113;-73
2021/05/12 03:34:37;;;;;;;12.53;5.07;;;;;;;12.49;41.37;98234.57;125521;1104;102972;-73
2021/05/12 03:37:09;;;;;;;18.30;4.87;;;;;;;12.49;41.32;98239.08;125525;1099;103556;-76
2021/05/12 03:39:37;;;;;;;15.50;5.10;;;;;;;12.47;41.46;98236.55;125486;1104;103021;-77
2021/05/12 03:42:06;;;;;;;18.37;5.00;;;;;;;12.49;41.52;98234.57;125406;1104;103179;-74
2021/05/12 03:44:34;;;;;;;18.00;5.70;;;;;;;12.52;41.55;98236.13;125546;1104;103144;-74
2021/05/12 03:47:03;;;;;;;15.57;5.63;;;;;;;12.53;41.44;98231.62;125488;1100;103009;-74
2021/05/12 03:49:38;;;;;;;13.63;4.53;;;;;;;12.54;41.67;98233.30;125487;1100;103096;-74
2021/05/12 03:52:10;;;;;;;16.40;5.50;;;;;;;12.55;41.69;98235.84;125550;1104;103016;-72
2021/05/12 03:54:38;;;;;;;14.23;4.80;;;;;;;12.56;41.73;98231.33;125505;1104;103004;-75
2021/05/12 03:57:07;;;;;;;15.80;5.10;;;;;;;12.58;41.67;98229.36;125538;1104;103053;-73
2021/05/12 03:59:39;;;;;;;15.20;4.87;;;;;;;12.59;41.86;98228.38;125479;1100;102998;-76
2021/05/12 04:02:08;;;;;;;18.27;5.23;;;;;;;12.60;41.95;98225.58;125542;1100;102998;-74
2021/05/12 04:04:41;;;;;;;13.67;5.33;;;;;;;12.62;41.98;98231.61;125565;1100;103016;-74
2021/05/12 04:07:09;;;;;;;17.27;4.70;;;;;;;12.64;41.96;98231.45;125532;1104;103000;-75
2021/05/12 04:09:37;;;;;;;10.80;4.17;;;;;;;12.65;42.07;98225.95;125534;1104;102997;-75
2021/05/12 04:12:06;;;;;;;15.67;4.90;;;;;;;12.68;42.14;98221.31;125562;1104;103121;-76
2021/05/12 04:14:34;;;;;;;14.77;5.10;;;;;;;12.69;42.20;98233.67;125533;1104;103022;-77
2021/05/12 04:17:07;;;;;;;14.40;4.63;;;;;;;12.70;42.04;98230.02;125392;1104;103086;-73
2021/05/12 04:19:35;;;;;;;16.33;5.10;;;;;;;12.71;42.16;98227.22;125565;1104;103056;-73
2021/05/12 04:22:03;;;;;;;13.97;5.13;;;;;;;12.73;42.22;98230.58;125461;1100;103037;-74
2021/05/12 04:24:33;;;;;;;13.70;5.10;;;;;;;12.76;42.28;98230.30;125512;1104;103026;-75
2021/05/12 04:27:02;;;;;;;15.40;4.90;;;;;;;12.78;42.33;98224.80;125601;1104;103119;-76
2021/05/12 04:29:31;;;;;;;13.70;5.00;;;;;;;12.81;42.39;98219.17;125589;1104;103007;-73
2021/05/12 04:32:00;;;;;;;15.20;5.60;;;;;;;12.83;42.49;98219.86;125663;1104;103020;-74
2021/05/12 04:34:28;;;;;;;15.13;4.87;;;;;;;12.86;42.47;98218.72;125483;1104;103025;-76
2021/05/12 04:36:57;;;;;;;14.00;4.87;;;;;;;12.89;42.63;98210.42;125521;1104;103089;-76
2021/05/12 04:39:25;;;;;;;12.20;5.03;;;;;;;12.94;42.66;98210.81;125500;1100;103003;-73
2021/05/12 04:41:53;;;;;;;12.03;4.67;;;;;;;12.98;42.57;98214.05;125490;1105;102997;-77
2021/05/12 04:44:26;;;;;;;14.93;5.05;;;;;;;13.00;42.64;98212.90;125572;1100;103071;-73
2021/05/12 04:46:56;;;;;;;18.17;5.20;;;;;;;13.03;42.65;98215.27;125520;1104;103093;-81
2021/05/12 04:49:27;;;;;;;16.73;4.37;;;;;;;13.06;42.70;98212.31;125395;1105;103089;-72
2021/05/12 04:51:55;;;;;;;12.70;4.40;;;;;;;13.09;42.63;98212.02;125498;1104;102997;-76
2021/05/12 04:54:23;;;;;;;15.70;5.13;;;;;;;13.13;42.87;98212.55;125561;1105;103000;-76
2021/05/12 04:56:52;;;;;;;12.47;4.40;;;;;;;13.18;42.83;98210.27;125565;1104;102991;-74
2021/05/12 04:59:25;;;;;;;13.98;4.75;;;;;;;13.23;42.95;98212.52;125558;1100;103025;-76
2021/05/12 05:01:58;;;;;;;16.87;5.33;;;;;;;13.28;42.98;98207.53;125607;1100;103024;-76
2021/05/12 05:04:27;;;;;;;13.00;4.60;;;;;;;13.33;42.98;98205.26;125513;1104;103020;-69
2021/05/12 05:06:56;;;;;;;18.00;5.53;;;;;;;13.37;43.06;98209.31;125571;1104;103158;-76
2021/05/12 05:09:28;;;;;;;11.60;4.50;;;;;;;13.43;43.07;98207.06;125489;1104;103115;-76
2021/05/12 05:11:56;;;;;;;13.67;5.10;;;;;;;13.47;43.22;98203.92;125573;1104;102989;-75
2021/05/12 05:14:28;;;;;;;14.77;4.77;;;;;;;13.53;43.30;98205.99;125528;1105;103021;-75
2021/05/12 05:17:02;;;;;;;13.97;4.70;;;;;;;13.59;43.29;98206.38;125499;1104;103065;-78
2021/05/12 05:19:32;;;;;;;16.80;4.90;;;;;;;13.64;43.07;98201.42;125542;1104;103225;-77
2021/05/12 05:22:00;;;;;;;12.10;4.40;;;;;;;13.68;43.33;98211.64;125572;1104;103116;-75
2021/05/12 05:24:29;;;;;;;14.37;5.10;;;;;;;13.75;43.21;98219.05;125514;1104;103001;-75
2021/05/12 05:26:58;;;;;;;14.73;4.63;;;;;;;13.79;43.33;98215.94;125541;1099;104144;-74
2021/05/12 05:29:26;;;;;;;11.13;4.00;;;;;;;13.86;43.36;98228.70;125448;1100;103017;-74
2021/05/12 05:31:55;;;;;;;14.47;4.30;;;;;;;13.92;43.29;98228.91;125466;1104;103498;-73
2021/05/12 05:34:23;;;;;;;14.87;5.00;;;;;;;13.99;43.44;98229.13;125480;1100;102994;-74
2021/05/12 05:36:52;;;;;;;14.27;5.10;;;;;;;14.04;43.39;98217.98;125446;1104;103089;-74
2021/05/12 05:39:20;;;;;;;15.20;4.47;;;;;;;14.10;43.45;98215.52;125457;1104;102994;-72
2021/05/12 05:41:53;;;;;;;14.17;4.57;;;;;;;14.17;43.68;98214.91;125489;1104;103065;-76
2021/05/12 05:44:23;;;;;;;9.97;4.50;;;;;;;14.23;43.55;98212.44;125499;1104;103072;-76
2021/05/12 05:46:51;;;;;;;14.53;5.10;;;;;;;14.29;43.62;98205.61;125558;1104;103108;-76
2021/05/12 05:49:20;;;;;;;14.40;4.53;;;;;;;14.35;43.68;98201.48;125471;1104;103069;-75
2021/05/12 05:51:49;;;;;;;15.33;4.20;;;;;;;14.41;43.65;98201.69;125516;1104;102991;-75
2021/05/12 05:54:19;;;;;;;10.30;4.40;;;;;;;14.47;43.74;98197.53;125455;1104;103026;-73
2021/05/12 05:56:48;;;;;;;11.53;4.37;;;;;;;14.55;43.74;98194.09;125493;1104;103031;-75
2021/05/12 05:59:17;;;;;;;14.27;4.10;;;;;;;14.61;43.65;98193.45;125333;1104;103106;-73
2021/05/12 06:01:45;;;;;;;11.35;4.35;;;;;;;14.69;44.24;98206.88;125457;1104;102991;-72
2021/05/12 06:04:14;;;;;;;14.57;4.73;;;;;;;14.76;43.96;98207.11;125514;1104;103003;-73
2021/05/12 06:06:43;;;;;;;13.13;4.63;;;;;;;14.85;44.00;98199.95;125496;1104;103000;-74
2021/05/12 06:09:11;;;;;;;11.30;4.47;;;;;;;14.92;43.95;98200.98;125560;1104;103042;-74
2021/05/12 06:11:42;;;;;;;14.60;4.40;;;;;;;15.00;43.99;98195.67;125535;1099;103104;-78
2021/05/12 06:14:11;;;;;;;12.00;4.25;;;;;;;15.08;44.00;98192.17;125495;1104;102874;-75
2021/05/12 06:16:39;;;;;;;17.75;5.10;;;;;;;15.17;43.97;98190.35;125549;1100;103094;-77
2021/05/12 06:19:08;;;;;;;17.23;4.77;;;;;;;15.24;44.02;98188.70;125499;1099;103073;-77
2021/05/12 06:21:38;;;;;;;17.73;4.40;;;;;;;15.32;43.98;98193.23;125375;1104;103117;-77
2021/05/12 06:24:07;;;;;;;15.27;4.63;;;;;;;15.40;44.05;98187.08;125404;1100;103178;-75
2021/05/12 06:26:37;;;;;;;13.90;4.53;;;;;;;15.47;44.21;98188.92;125461;1104;103631;-76
2021/05/12 06:29:06;;;;;;;12.47;4.43;;;;;;;15.57;44.25;98185.27;125506;1104;103136;-78
2021/05/12 06:31:35;;;;;;;14.20;4.75;;;;;;;15.63;44.15;98189.97;125491;1100;103159;-75
2021/05/12 06:34:03;;;;;;;15.07;5.50;;;;;;;15.71;44.13;98175.72;125581;1100;102997;-77
2021/05/12 06:36:35;;;;;;;17.93;5.07;;;;;;;15.78;44.19;98180.23;125574;1104;103099;-76
2021/05/12 06:39:06;;;;;;;9.57;4.30;;;;;;;15.87;44.24;98185.64;125600;1104;103219;-78
2021/05/12 06:41:35;;;;;;;10.60;4.00;;;;;;;15.95;44.24;98185.65;125512;1104;102959;-77
2021/05/12 06:44:06;;;;;;;15.05;4.50;;;;;;;16.04;44.46;98181.11;125528;1104;103118;-78
2021/05/12 06:46:36;;;;;;;13.83;4.30;;;;;;;16.14;44.40;98179.09;125475;1104;103000;-76
2021/05/12 06:49:05;;;;;;;14.43;4.37;;;;;;;16.24;44.48;98183.45;125479;1100;103114;-79
2021/05/12 06:51:33;;;;;;;16.47;4.33;;;;;;;16.33;44.53;98185.95;125498;1104;103097;-77
2021/05/12 06:54:02;;;;;;;15.87;4.80;;;;;;;16.44;44.54;98178.55;125307;1099;103576;-83
2021/05/12 06:56:30;;;;;;;10.47;4.10;;;;;;;16.58;44.42;98185.88;125563;1104;103029;-80
2021/05/12 06:58:58;;;;;;;15.43;5.43;;;;;;;16.81;44.37;98187.84;125399;1104;103045;-79
2021/05/12 07:01:26;;;;;;;8.83;3.87;;;;;;;18.69;43.18;98183.13;125664;1104;103088;-76
2021/05/12 07:03:55;;;;;;;13.87;4.03;;;;;;;20.91;42.61;98177.20;125485;1100;103096;-76
2021/05/12 07:06:26;;;;;;;17.17;4.87;;;;;;;23.03;42.55;98177.80;125528;1104;103027;-78
2021/05/12 07:08:57;;;;;;;14.90;4.60;;;;;;;25.10;42.58;98179.17;125504;1104;103118;-75
2021/05/12 07:11:26;;;;;;;13.95;4.50;;;;;;;26.85;42.79;98170.23;125385;1104;103075;-77
2021/05/12 07:13:56;;;;;;;14.30;4.93;;;;;;;28.53;42.70;98163.70;125439;1100;103561;-78
2021/05/12 07:16:24;;;;;;;16.05;4.70;;;;;;;30.10;42.10;98163.37;125394;1104;103150;-76
2021/05/12 07:18:52;;;;;;;15.37;4.33;;;;;;;31.54;42.25;98170.72;125573;1104;103129;-75
2021/05/12 07:21:21;;;;;;;12.53;4.27;;;;;;;32.80;41.86;98170.47;125435;1099;103129;-75
2021/05/12 07:23:49;;;;;;;13.23;4.80;;;;;;;33.67;41.54;98162.91;125485;1099;103096;-78
2021/05/12 07:26:23;;;;;;;12.40;5.17;;;;;;;34.53;41.40;98157.00;125568;1105;103002;-78
2021/05/12 07:28:54;;;;;;;15.87;5.20;;;;;;;35.51;40.69;98155.02;125743;1105;103144;-79
2021/05/12 07:31:24;;;;;;;15.20;6.20;;;;;;;36.20;40.28;98153.69;125799;1104;103075;-80
2021/05/12 07:33:55;;;;;;;20.03;6.67;;;;;;;37.01;39.92;98158.00;125776;1104;103120;-79
2021/05/12 07:36:23;;;;;;;14.20;5.10;;;;;;;37.62;39.29;98145.89;125388;1105;103208;-80
2021/05/12 07:38:55;;;;;;;13.83;4.83;;;;;;;38.28;38.70;98146.20;125347;1104;103177;-84
2021/05/12 07:41:24;;;;;;;14.50;5.03;;;;;;;38.78;38.47;98143.50;125422;1104;103490;-79
2021/05/12 07:43:52;;;;;;;13.10;4.60;;;;;;;39.08;37.42;98141.02;125412;1104;103287;-80
2021/05/12 07:46:21;;;;;;;15.27;4.57;;;;;;;39.20;36.60;98149.53;125683;1105;103084;-82
2021/05/12 07:48:52;;;;;;;13.78;5.08;;;;;;;39.34;36.35;98154.17;125638;1104;103024;-81
2021/05/12 07:51:22;;;;;;;13.25;4.60;;;;;;;39.68;36.30;98145.03;125537;1100;103096;-84
2021/05/12 07:53:50;;;;;;;14.17;4.27;;;;;;;40.12;34.97;98144.19;125459;1105;102996;-80
2021/05/12 07:56:19;;;;;;;11.10;4.70;;;;;;;40.21;35.04;98135.80;125673;1105;103132;-82
2021/05/12 07:58:49;;;;;;;14.07;4.60;;;;;;;40.36;34.29;98153.97;125663;1104;103045;-84
2021/05/12 08:01:21;;;;;;;15.08;4.58;;;;;;;40.40;33.95;98144.61;125791;1099;103119;-82
2021/05/12 08:03:55;;;;;;;12.60;4.47;;;;;;;40.61;33.51;98147.48;125715;1104;102992;-83
2021/05/12 08:06:23;;;;;;;13.47;4.33;;;;;;;40.54;32.37;98140.80;125534;1104;103195;-81
2021/05/12 08:08:52;;;;;;;16.03;5.20;;;;;;;40.40;32.43;98132.66;125797;1100;103147;-80
2021/05/12 08:11:21;;;;;;;19.37;8.50;;;;;;;40.72;31.94;98133.20;125672;1104;103025;-81
2021/05/12 08:13:53;;;;;;;10.20;4.53;;;;;;;41.24;31.35;98132.09;125762;1104;102987;-81
2021/05/12 08:16:22;;;;;;;13.47;4.60;;;;;;;41.20;30.80;98120.81;125708;1104;103088;-81
2021/05/12 08:18:50;;;;;;;11.10;4.50;;;;;;;41.18;30.88;98125.08;125705;1104;102856;-81
2021/05/12 08:21:20;;;;;;;14.30;5.15;;;;;;;41.25;30.22;98130.14;125726;1100;103100;-75
2021/05/12 08:23:51;;;;;;;14.05;4.43;;;;;;;41.31;29.49;98126.80;125272;1100;103219;-74
2021/05/12 08:26:22;;;;;;;10.10;4.07;;;;;;;41.22;29.28;98129.66;125496;1104;103027;-77
2021/05/12 08:28:54;;;;;;;12.95;4.23;;;;;;;40.96;28.35;98123.42;125489;1104;103087;-78
2021/05/12 08:31:23;;;;;;;12.80;4.27;;;;;;;40.68;28.36;98130.28;125459;1104;103538;-77
2021/05/12 08:33:51;;;;;;;12.27;4.30;;;;;;;40.57;27.98;98128.98;125443;1104;103161;-78
2021/05/12 08:36:21;;;;;;;10.17;3.80;;;;;;;40.19;27.57;98125.81;125810;1104;103502;-80
2021/05/12 08:38:50;;;;;;;14.47;4.17;;;;;;;40.46;27.29;98125.77;125343;1105;102978;-80
2021/05/12 08:41:22;;;;;;;8.87;3.70;;;;;;;40.36;26.85;98121.35;125474;1104;103019;-84
2021/05/12 08:43:52;;;;;;;;;;;;;;;40.12;25.83;98124.70;125598;1105;103277;-77
2021/05/12 08:46:21;;;;;;;13.87;3.50;;;;;;;39.72;26.32;98128.48;125590;1104;103119;-80
2021/05/12 08:48:51;;;;;;;10.53;3.85;;;;;;;39.47;26.00;98124.56;125431;1104;103020;-79
2021/05/12 08:51:21;;;;;;;14.30;4.07;;;;;;;39.19;25.80;98124.84;125417;1104;102997;-80
2021/05/12 08:53:54;;;;;;;10.93;3.80;;;;;;;39.06;25.66;98132.19;125496;1104;103132;-80
2021/05/12 08:56:26;;;;;;;7.57;3.57;;;;;;;39.12;25.66;98126.14;125780;1104;103030;-75
2021/05/12 08:59:03;;;;;;;48.60;43.67;;;;;;;39.09;25.35;98125.98;125498;1104;103150;-75
2021/05/12 09:01:35;;;;;;;14.00;5.13;;;;;;;38.82;24.88;98119.49;125454;1104;103019;-76
2021/05/12 09:04:04;;;;;;;7.90;3.60;;;;;;;38.71;24.72;98116.20;125473;1100;102991;-79
2021/05/12 09:06:38;;;;;;;10.40;3.47;;;;;;;38.70;24.82;98111.78;125373;1105;103019;-76
2021/05/12 09:09:08;;;;;;;15.63;3.77;;;;;;;38.65;24.26;98109.98;125630;1104;103445;-75
2021/05/12 09:11:36;;;;;;;13.23;3.40;;;;;;;38.38;24.09;98109.01;125468;1104;103790;-78
2021/05/12 09:14:25;;;;;;;13.97;4.20;;;;;;;38.29;23.79;98116.50;125353;1100;103170;-74
2021/05/12 09:16:54;;;;;;;11.67;3.47;;;;;;;38.39;23.82;98113.45;125422;1104;102993;-78
2021/05/12 09:19:26;;;;;;;8.78;3.65;;;;;;;38.50;23.64;98102.91;125444;1104;103095;-76
2021/05/12 09:21:57;;;;;;;13.13;3.53;;;;;;;38.34;23.52;98099.67;125431;1099;102857;-78
2021/05/12 09:24:41;;;;;;;10.33;3.30;;;;;;;38.23;23.47;98101.92;125534;1104;102996;-80
2021/05/12 09:27:13;;;;;;;7.13;3.40;;;;;;;38.12;23.19;98106.09;125473;1104;103154;-78
2021/05/12 09:29:45;;;;;;;7.00;3.10;;;;;;;38.02;23.18;98100.84;125453;1104;102988;-78
2021/05/12 09:32:17;;;;;;;35.97;32.23;;;;;;;38.01;23.27;98090.88;125391;1100;103062;-78
2021/05/12 09:35:03;;;;;;;9.57;4.23;;;;;;;37.90;22.75;98098.62;125457;1099;103129;-78
2021/05/12 09:37:34;;;;;;;6.77;3.43;;;;;;;37.78;22.89;98088.07;125535;1104;103195;-75
2021/05/12 09:40:05;;;;;;;11.20;3.50;;;;;;;37.66;22.58;98086.71;125403;1105;103096;-77
2021/05/12 09:42:36;;;;;;;8.53;3.10;;;;;;;37.61;22.65;98086.83;125427;1104;103017;-77
2021/05/12 09:45:13;;;;;;;;;;;;;;;37.30;22.36;98098.59;125472;1104;102996;-77
2021/05/12 09:47:43;;;;;;;8.00;3.27;;;;;;;37.13;22.29;98090.95;125428;1104;103144;-77
2021/05/12 09:50:18;;;;;;;11.85;3.30;;;;;;;36.78;22.17;98079.48;125431;1104;103026;-77
2021/05/12 09:53:00;;;;;;;11.97;2.97;;;;;;;36.62;22.31;98090.91;125386;1104;102995;-78
2021/05/12 09:55:36;;;;;;;10.80;3.13;;;;;;;36.32;22.29;98084.80;125797;1100;103570;-75
2021/05/12 09:58:21;;;;;;;11.50;2.90;;;;;;;35.81;22.43;98085.70;125394;1104;102723;-78
2021/05/12 10:00:52;;;;;;;11.43;2.73;;;;;;;35.24;22.34;98087.39;125416;1104;103297;-73
2021/05/12 10:03:25;;;;;;;11.80;3.10;;;;;;;34.63;21.73;98078.76;125407;1105;103069;-76
2021/05/12 10:06:04;;;;;;;11.80;3.20;;;;;;;33.99;21.78;98079.68;125555;1099;103129;-74
2021/05/12 10:08:35;;;;;;;11.00;2.80;;;;;;;33.66;21.99;98078.55;125385;1099;102375;-76
2021/05/12 10:11:08;;;;;;;;;;;;;;;33.14;21.92;98078.91;125536;1104;103025;-77
2021/05/12 10:13:38;;;;;;;14.23;3.48;;;;;;;32.64;21.75;98084.33;125389;1104;103066;-73
2021/05/12 10:16:10;;;;;;;16.13;5.97;;;;;;;32.24;21.76;98086.90;125435;1104;103047;-77
2021/05/12 10:18:39;;;;;;;12.47;5.10;;;;;;;31.83;22.04;98073.20;125329;1105;103115;-80
2021/05/12 10:21:09;;;;;;;11.60;3.27;;;;;;;31.57;22.08;98067.69;125449;1104;102995;-79
2021/05/12 10:23:40;;;;;;;16.73;3.60;;;;;;;31.35;22.15;98070.69;125215;1104;102997;-77
2021/05/12 10:26:09;;;;;;;14.93;3.53;;;;;;;31.10;21.50;98067.59;125412;1100;103451;-76
2021/05/12 10:28:40;;;;;;;11.87;3.43;;;;;;;30.87;21.74;98075.20;125526;1104;103202;-76
2021/05/12 10:31:12;;;;;;;8.43;2.90;;;;;;;30.61;21.50;98060.55;125709;1104;103059;-78
2021/05/12 10:33:46;;;;;;;7.93;2.80;;;;;;;30.38;21.57;98061.78;125508;1100;103027;-76
2021/05/12 10:36:22;;;;;;;48.27;33.60;;;;;;;30.30;22.28;98063.96;125337;1104;103152;-78
2021/05/12 10:38:55;;;;;;;19.45;6.28;;;;;;;30.22;22.31;98069.94;125559;1104;103005;-76
2021/05/12 10:41:47;;;;;;;13.35;4.15;;;;;;;30.09;21.93;98060.27;125451;1100;103052;-75
2021/05/12 10:44:38;;;;;;;9.10;2.83;;;;;;;29.90;22.29;98053.52;125363;1105;103058;-81
2021/05/12 10:47:18;;;;;;;9.73;2.80;;;;;;;29.73;22.43;98057.24;125689;1104;102988;-77
2021/05/12 10:49:53;;;;;;;14.97;2.93;;;;;;;29.63;22.61;98044.27;125503;1100;103495;-76
2021/05/12 10:52:21;;;;;;;8.05;2.80;;;;;;;29.51;22.30;98046.38;125527;1104;103094;-78
2021/05/12 10:54:53;;;;;;;10.83;2.40;;;;;;;29.44;22.78;98043.84;125346;1105;103088;-77
2021/05/12 10:57:48;;;;;;;11.03;2.90;;;;;;;29.41;22.89;98028.77;125532;1100;103123;-75
2021/05/12 11:00:20;;;;;;;11.20;3.13;;;;;;;29.34;22.56;98036.33;125533;1104;102993;-79
2021/05/12 11:03:02;;;;;;;6.43;2.70;;;;;;;29.22;22.31;98041.13;125360;1099;103115;-75
2021/05/12 11:06:00;;;;;;;13.38;4.15;;;;;;;29.10;22.82;98041.30;125366;1105;103150;-80
2021/05/12 11:08:29;;;;;;;14.23;3.17;;;;;;;28.93;22.49;98027.71;125560;1104;102994;-78
2021/05/12 11:11:04;;;;;;;10.97;2.80;;;;;;;28.77;22.98;98030.27;125501;1104;103494;-80
2021/05/12 11:13:36;;;;;;;9.93;3.33;;;;;;;28.71;22.85;98038.66;125739;1099;103007;-75
2021/05/12 11:16:05;;;;;;;13.95;3.58;;;;;;;28.68;23.16;98029.88;125540;1104;103147;-74
2021/05/12 11:18:34;;;;;;;10.37;3.07;;;;;;;28.65;22.92;98015.89;125351;1104;103147;-74
2021/05/12 11:21:33;;;;;;;12.37;2.73;;;;;;;28.56;23.36;98020.96;125487;1104;102998;-73
2021/05/12 11:24:07;;;;;;;11.13;2.97;;;;;;;28.52;22.97;98020.66;125489;1104;102994;-74
2021/05/12 11:32:09;;;;;;;6.57;2.70;;;;;;;28.38;23.06;98006.55;125418;1105;103078;-75
2021/05/12 11:34:39;;;;;;;12.40;2.80;;;;;;;28.31;23.62;97994.97;125529;1104;103003;-74